Time;durP1;ratioP1;P1;durP2;ratioP2;P2;SDS_P1;SDS_P2;PMS_P1;PMS_P2;Temp;Humidity;BMP_temperature;BMP_pressure;BME280_temperature;BME280_humidity;BME280_pressure;Samples;Min_cycle;Max_cycle;Signal;HPM_P1;HPM_P2
2023/10/07 00:01:45;;;;;;;8.70;8.40;;;;;;;;;;4150205;28;20383;-67
2023/10/07 00:03:49;;;;;;;9.90;9.30;;;;;;;;;;4150216;28;20100;-67
2023/10/07 00:06:00;;;;;;;9.43;8.77;;;;;;;;;;4150591;28;20136;-67
2023/10/07 00:08:03;;;;;;;11.15;10.40;;;;;;;;;;4150388;28;20070;-68
2023/10/07 00:10:05;;;;;;;10.30;9.65;;;;;;;;;;4150359;28;20042;-67
2023/10/07 00:12:14;;;;;;;9.40;9.00;;;;;;;;;;4149512;28;20092;-67
2023/10/07 00:14:16;;;;;;;10.88;10.10;;;;;;;;;;4150273;28;20441;-69
2023/10/07 00:16:18;;;;;;;11.50;10.50;;;;;;;;;;4150549;28;20760;-67
2023/10/07 00:18:19;;;;;;;10.85;10.25;;;;;;;;;;4150089;28;20056;-67
2023/10/07 00:20:22;;;;;;;10.30;9.27;;;;;;;;;;4150105;28;20042;-68
2023/10/07 00:22:26;;;;;;;10.50;9.90;;;;;;;;;;4150292;28;20673;-67
2023/10/07 00:24:32;;;;;;;10.30;9.80;;;;;;;;;;4150326;28;20045;-67
2023/10/07 00:26:34;;;;;;;9.93;9.35;;;;;;;;;;4150246;28;20073;-67
2023/10/07 00:28:36;;;;;;;9.50;9.20;;;;;;;;;;4150112;28;20514;-67
2023/10/07 00:30:38;;;;;;;10.18;9.18;;;;;;;;;;4149980;28;20292;-67
2023/10/07 00:32:40;;;;;;;10.70;10.15;;;;;;;;;;4148769;28;20076;-68
2023/10/07 00:34:44;;;;;;;9.20;8.80;;;;;;;;;;4159857;28;20818;-67
2023/10/07 00:36:47;;;;;;;10.18;9.32;;;;;;;;;;4133885;28;20049;-67
2023/10/07 00:38:49;;;;;;;10.32;9.55;;;;;;;;;;4133618;28;20094;-67
2023/10/07 00:40:56;;;;;;;10.13;9.52;;;;;;;;;;4153417;28;20501;-67
2023/10/07 00:42:59;;;;;;;9.52;9.23;;;;;;;;;;4166274;28;20046;-67
2023/10/07 00:45:02;;;;;;;9.43;8.98;;;;;;;;;;4166181;28;20049;-67
2023/10/07 00:49:10;;;;;;;9.80;9.45;;;;;;;;;;4149812;28;20544;-67
2023/10/07 00:51:13;;;;;;;9.50;9.20;;;;;;;;;;4149595;28;20513;-67
2023/10/07 00:53:15;;;;;;;8.40;7.88;;;;;;;;;;4149739;28;20092;-67
2023/10/07 00:55:18;;;;;;;;;;;;;;;;;;4148896;28;20038;-67
2023/10/07 00:57:47;;;;;;;9.57;9.07;;;;;;;;;;4149635;28;19921;-67
2023/10/07 00:59:50;;;;;;;9.95;9.23;;;;;;;;;;4149453;28;20503;-67
2023/10/07 01:01:57;;;;;;;9.82;9.32;;;;;;;;;;4149958;28;20052;-70
2023/10/07 01:04:02;;;;;;;10.50;9.82;;;;;;;;;;4147574;28;20058;-70
2023/10/07 01:08:06;;;;;;;9.77;9.32;;;;;;;;;;4134399;28;20117;-70
2023/10/07 01:12:10;;;;;;;11.02;10.07;;;;;;;;;;4135193;28;20402;-70
2023/10/07 01:14:12;;;;;;;10.07;9.70;;;;;;;;;;4149349;28;20038;-70
2023/10/07 01:16:19;;;;;;;10.02;9.43;;;;;;;;;;4149531;28;20375;-70
2023/10/07 01:18:24;;;;;;;9.73;9.25;;;;;;;;;;4149530;28;20073;-70
2023/10/07 01:20:34;;;;;;;9.70;9.20;;;;;;;;;;4149178;28;20533;-70
2023/10/07 01:22:36;;;;;;;10.43;9.57;;;;;;;;;;4149259;28;20074;-70
2023/10/07 01:26:44;;;;;;;8.93;8.43;;;;;;;;;;4149252;28;20041;-70
2023/10/07 01:28:45;;;;;;;9.15;8.55;;;;;;;;;;4149220;28;20041;-70
2023/10/07 01:31:12;;;;;;;9.57;8.97;;;;;;;;;;4132838;28;20042;-71
2023/10/07 01:35:25;;;;;;;10.10;9.55;;;;;;;;;;4160847;28;20034;-71
2023/10/07 01:37:36;;;;;;;10.85;10.25;;;;;;;;;;4161698;28;20045;-71
2023/10/07 01:39:40;;;;;;;10.40;9.95;;;;;;;;;;4165149;28;20041;-71
2023/10/07 01:41:42;;;;;;;10.05;9.55;;;;;;;;;;4165285;28;20045;-71
2023/10/07 01:43:59;;;;;;;10.67;9.97;;;;;;;;;;4156227;28;20104;-70
2023/10/07 01:46:10;;;;;;;9.88;9.38;;;;;;;;;;4148722;28;20497;-70
2023/10/07 01:48:12;;;;;;;12.63;11.65;;;;;;;;;;4148821;28;20379;-71
2023/10/07 01:50:15;;;;;;;10.25;9.82;;;;;;;;;;4148860;28;20045;-71
2023/10/07 01:52:17;;;;;;;12.07;10.98;;;;;;;;;;4148783;28;20096;-70
2023/10/07 01:54:21;;;;;;;11.07;10.33;;;;;;;;;;4148609;28;20042;-71
2023/10/07 01:56:26;;;;;;;11.18;10.40;;;;;;;;;;4163901;28;20041;-70
2023/10/07 01:58:30;;;;;;;10.15;9.48;;;;;;;;;;4148592;28;20049;-70
2023/10/07 02:00:45;;;;;;;10.23;9.73;;;;;;;;;;4148588;28;20557;-70
2023/10/07 02:02:49;;;;;;;11.85;11.02;;;;;;;;;;4148361;28;20062;-70
2023/10/07 02:04:55;;;;;;;11.35;10.65;;;;;;;;;;4148918;28;20076;-70
2023/10/07 02:06:56;;;;;;;11.63;10.82;;;;;;;;;;4148571;28;20038;-70
2023/10/07 02:08:58;;;;;;;10.43;9.73;;;;;;;;;;4148592;28;20082;-71
2023/10/07 02:11:02;;;;;;;11.25;10.50;;;;;;;;;;4147757;28;20129;-70
2023/10/07 02:13:04;;;;;;;10.90;10.30;;;;;;;;;;4148322;28;20046;-70
2023/10/07 02:15:19;;;;;;;11.67;10.87;;;;;;;;;;4148278;28;20500;-71
2023/10/07 02:17:25;;;;;;;10.05;9.27;;;;;;;;;;4148397;28;20343;-70
2023/10/07 02:19:28;;;;;;;8.30;8.10;;;;;;;;;;4148383;28;20407;-71
2023/10/07 02:21:32;;;;;;;7.97;7.78;;;;;;;;;;4161635;28;20057;-71
2023/10/07 02:23:37;;;;;;;9.00;8.80;;;;;;;;;;4164670;28;20562;-71
2023/10/07 02:25:40;;;;;;;10.32;9.65;;;;;;;;;;4159444;28;20046;-71
2023/10/07 02:27:48;;;;;;;10.35;9.70;;;;;;;;;;4148399;28;20044;-71
2023/10/07 02:29:56;;;;;;;10.13;9.68;;;;;;;;;;4146975;28;20058;-71
2023/10/07 02:32:13;;;;;;;8.65;8.10;;;;;;;;;;4148379;28;20069;-71
2023/10/07 02:34:28;;;;;;;9.18;8.57;;;;;;;;;;4141455;28;20042;-71
2023/10/07 02:38:41;;;;;;;8.43;8.10;;;;;;;;;;4131590;28;20038;-71
2023/10/07 02:40:49;;;;;;;7.75;7.55;;;;;;;;;;4131892;28;20034;-71
2023/10/07 02:42:54;;;;;;;10.60;9.75;;;;;;;;;;4131622;28;20069;-70
2023/10/07 02:47:13;;;;;;;9.63;9.18;;;;;;;;;;4141509;28;20042;-71
2023/10/07 02:49:20;;;;;;;9.68;9.38;;;;;;;;;;4147948;28;20156;-71
2023/10/07 02:51:22;;;;;;;10.25;9.68;;;;;;;;;;4147619;28;20483;-71
2023/10/07 02:53:23;;;;;;;9.80;9.30;;;;;;;;;;4147857;28;20030;-71
2023/10/07 02:57:39;;;;;;;9.70;9.13;;;;;;;;;;4147836;28;20045;-71
2023/10/07 02:59:50;;;;;;;9.55;8.75;;;;;;;;;;4147798;28;20292;-71
2023/10/07 03:04:12;;;;;;;11.65;10.55;;;;;;;;;;4147711;28;20042;-71
2023/10/07 03:06:17;;;;;;;10.67;10.10;;;;;;;;;;4147634;28;20045;-71
2023/10/07 03:08:19;;;;;;;10.35;9.95;;;;;;;;;;4147631;28;20292;-71
2023/10/07 03:12:57;;;;;;;9.50;9.07;;;;;;;;;;4125010;28;20058;-71
2023/10/07 03:15:05;;;;;;;10.45;9.80;;;;;;;;;;4147596;28;20054;-71
2023/10/07 03:17:17;;;;;;;11.25;10.73;;;;;;;;;;4147181;28;20048;-71
2023/10/07 03:19:30;;;;;;;10.05;9.45;;;;;;;;;;4147741;28;20103;-71
2023/10/07 03:23:46;;;;;;;9.30;8.90;;;;;;;;;;4131298;28;20105;-71
2023/10/07 03:27:55;;;;;;;10.07;9.57;;;;;;;;;;4131248;28;20402;-71
2023/10/07 03:30:40;;;;;;;8.98;8.68;;;;;;;;;;4156611;28;20033;-71
2023/10/07 03:32:22;;;;;;;10.80;10.05;;;;;;;;;;4158127;28;20049;-71
2023/10/07 03:34:24;;;;;;;10.02;9.43;;;;;;;;;;4163683;28;20120;-72
2023/10/07 03:36:44;;;;;;;10.07;9.38;;;;;;;;;;4149692;28;20069;-71
2023/10/07 03:38:46;;;;;;;11.23;10.63;;;;;;;;;;4147263;28;20095;-72
2023/10/07 03:40:53;;;;;;;10.43;9.93;;;;;;;;;;4147350;28;20721;-71
2023/10/07 03:42:55;;;;;;;10.55;9.95;;;;;;;;;;4147407;28;20489;-71
2023/10/07 03:44:57;;;;;;;9.63;9.30;;;;;;;;;;4147309;28;20042;-71
2023/10/07 03:46:59;;;;;;;10.15;9.65;;;;;;;;;;4147241;28;20064;-71
2023/10/07 03:49:06;;;;;;;9.88;9.38;;;;;;;;;;4147312;28;20041;-71
2023/10/07 03:51:09;;;;;;;9.23;8.80;;;;;;;;;;4147478;28;20069;-71
2023/10/07 03:53:14;;;;;;;10.15;9.55;;;;;;;;;;4147314;28;20038;-71
2023/10/07 03:55:16;;;;;;;10.23;9.35;;;;;;;;;;4147308;28;20050;-71
2023/10/07 03:57:18;;;;;;;10.03;9.47;;;;;;;;;;4147169;28;20426;-71
2023/10/07 03:59:20;;;;;;;9.32;8.70;;;;;;;;;;4147372;28;20073;-71
2023/10/07 04:01:26;;;;;;;8.67;8.37;;;;;;;;;;4147205;28;20108;-71
2023/10/07 04:03:32;;;;;;;8.00;7.80;;;;;;;;;;4147046;28;20057;-72
2023/10/07 04:05:41;;;;;;;8.52;8.13;;;;;;;;;;4147436;28;20045;-71
2023/10/07 04:07:43;;;;;;;7.82;7.53;;;;;;;;;;4147170;28;20046;-71
2023/10/07 04:09:45;;;;;;;9.75;9.18;;;;;;;;;;4147095;28;20402;-71
2023/10/07 04:11:50;;;;;;;8.60;8.25;;;;;;;;;;4147488;28;20116;-71
2023/10/07 04:13:53;;;;;;;9.48;8.98;;;;;;;;;;4147220;28;20042;-72
2023/10/07 04:15:57;;;;;;;8.85;8.43;;;;;;;;;;4147084;28;20450;-72
2023/10/07 04:17:59;;;;;;;9.85;9.25;;;;;;;;;;4143496;28;20089;-72
2023/10/07 04:20:18;;;;;;;9.48;9.07;;;;;;;;;;4131014;28;20553;-71
2023/10/07 04:22:24;;;;;;;9.65;9.15;;;;;;;;;;4130911;28;20085;-72
2023/10/07 04:24:28;;;;;;;8.60;8.20;;;;;;;;;;4130873;28;20049;-72
2023/10/07 04:26:33;;;;;;;9.13;8.73;;;;;;;;;;4145918;28;20472;-71
2023/10/07 04:28:34;;;;;;;7.88;7.68;;;;;;;;;;4145873;28;20129;-72
2023/10/07 04:30:39;;;;;;;9.00;8.63;;;;;;;;;;4149091;28;20096;-72
2023/10/07 04:32:52;;;;;;;8.82;8.50;;;;;;;;;;4149861;28;20088;-72
2023/10/07 04:39:18;;;;;;;20.35;11.98;;;;;;;;;;4150145;28;20042;-71
2023/10/07 04:43:36;;;;;;;13.35;12.35;;;;;;;;;;4143851;28;20494;-72
2023/10/07 04:45:49;;;;;;;12.23;11.60;;;;;;;;;;4133604;28;20077;-72
2023/10/07 04:48:23;;;;;;;;;;;;;;;;;;4149230;28;20049;-71
2023/10/07 04:50:19;;;;;;;10.25;9.80;;;;;;;;;;4149493;28;19921;-72
2023/10/07 04:52:24;;;;;;;;;;;;;;;;;;4148742;28;20049;-72
2023/10/07 04:54:35;;;;;;;8.32;8.10;;;;;;;;;;4145215;28;20362;-72
2023/10/07 04:56:39;;;;;;;15.73;9.07;;;;;;;;;;4148238;28;20590;-72
2023/10/07 04:58:44;;;;;;;10.00;8.95;;;;;;;;;;4149504;28;20422;-72
2023/10/07 05:00:47;;;;;;;44.47;7.97;;;;;;;;;;4149499;28;20056;-72
2023/10/07 05:02:49;;;;;;;6.75;6.65;;;;;;;;;;4149075;28;20083;-72
2023/10/07 05:04:50;;;;;;;21.77;8.88;;;;;;;;;;4149818;28;20077;-72
2023/10/07 05:06:54;;;;;;;7.00;6.30;;;;;;;;;;4148465;28;20046;-72
2023/10/07 05:08:56;;;;;;;5.97;5.88;;;;;;;;;;4149267;28;20042;-72
2023/10/07 05:11:06;;;;;;;6.77;6.67;;;;;;;;;;4149680;28;20414;-72
2023/10/07 05:13:09;;;;;;;7.63;7.38;;;;;;;;;;4149107;28;20070;-72
2023/10/07 05:15:11;;;;;;;12.27;9.15;;;;;;;;;;4149399;28;20042;-72
2023/10/07 05:17:12;;;;;;;12.80;9.77;;;;;;;;;;4149365;28;20034;-72
2023/10/07 05:19:19;;;;;;;11.25;10.70;;;;;;;;;;4149343;28;20387;-72
2023/10/07 05:21:22;;;;;;;14.18;12.30;;;;;;;;;;4151499;28;20044;-72
2023/10/07 05:23:24;;;;;;;9.82;9.43;;;;;;;;;;4166042;28;20037;-68
2023/10/07 05:25:26;;;;;;;7.87;7.60;;;;;;;;;;4144149;28;20046;-68
2023/10/07 05:27:27;;;;;;;9.40;9.13;;;;;;;;;;4148972;28;20042;-68
2023/10/07 05:29:29;;;;;;;9.52;9.23;;;;;;;;;;4149182;28;20088;-68
2023/10/07 05:31:31;;;;;;;10.50;10.10;;;;;;;;;;4149124;28;20048;-68
2023/10/07 05:33:34;;;;;;;11.27;10.60;;;;;;;;;;4147499;28;20058;-69
2023/10/07 05:35:38;;;;;;;;;;;;;;;;;;4149382;28;20050;-68
2023/10/07 05:37:42;;;;;;;10.73;9.85;;;;;;;;;;4143149;28;19956;-68
2023/10/07 05:39:44;;;;;;;11.07;10.25;;;;;;;;;;4145474;28;20035;-68
2023/10/07 05:41:47;;;;;;;10.10;9.40;;;;;;;;;;4138184;28;20394;-68
2023/10/07 05:43:49;;;;;;;11.48;10.77;;;;;;;;;;4144411;28;20597;-62
2023/10/07 05:45:52;;;;;;;11.37;10.70;;;;;;;;;;4148742;28;20042;-62
2023/10/07 05:47:54;;;;;;;;;;;;;;;;;;4147468;28;20046;-63
2023/10/07 05:49:55;;;;;;;12.15;11.25;;;;;;;;;;4141988;28;20294;-63
2023/10/07 05:51:58;;;;;;;12.13;11.13;;;;;;;;;;4143139;28;20494;-62
2023/10/07 05:53:59;;;;;;;12.70;11.77;;;;;;;;;;4143995;28;20045;-63
2023/10/07 05:56:05;;;;;;;12.10;11.43;;;;;;;;;;4148649;28;20054;-62
2023/10/07 05:58:07;;;;;;;11.27;10.48;;;;;;;;;;4148498;28;20775;-63
2023/10/07 06:00:09;;;;;;;12.63;11.75;;;;;;;;;;4148503;28;20041;-63
2023/10/07 06:02:15;;;;;;;10.73;10.23;;;;;;;;;;4148485;28;20116;-63
2023/10/07 06:04:18;;;;;;;11.77;11.07;;;;;;;;;;4132478;28;20074;-63
2023/10/07 06:06:20;;;;;;;12.52;11.70;;;;;;;;;;4132626;28;20137;-63
2023/10/07 06:08:26;;;;;;;11.50;10.77;;;;;;;;;;4142998;28;20037;-63
2023/10/07 06:10:27;;;;;;;12.18;11.55;;;;;;;;;;4148202;28;20518;-63
2023/10/07 06:12:29;;;;;;;11.65;11.10;;;;;;;;;;4148146;28;20053;-63
2023/10/07 06:14:31;;;;;;;11.82;11.23;;;;;;;;;;4148390;28;20050;-62
2023/10/07 06:16:33;;;;;;;;;;;;;;;;;;4142491;28;20532;-63
2023/10/07 06:18:35;;;;;;;12.02;11.35;;;;;;;;;;4148158;28;19921;-63
2023/10/07 06:20:46;;;;;;;12.87;12.07;;;;;;;;;;4148280;28;20095;-63
2023/10/07 06:22:51;;;;;;;12.85;11.95;;;;;;;;;;4148258;28;20292;-62
2023/10/07 06:24:55;;;;;;;12.10;11.27;;;;;;;;;;4148274;28;20545;-62
2023/10/07 06:26:56;;;;;;;11.25;10.60;;;;;;;;;;4148496;28;20034;-63
2023/10/07 06:29:05;;;;;;;12.93;11.97;;;;;;;;;;4148072;28;20414;-62
2023/10/07 06:31:11;;;;;;;10.18;9.35;;;;;;;;;;4138518;28;20297;-63
2023/10/07 06:33:13;;;;;;;12.02;11.13;;;;;;;;;;4142032;28;20680;-63
2023/10/07 06:35:21;;;;;;;10.90;10.40;;;;;;;;;;4143678;28;20118;-63
2023/10/07 06:37:28;;;;;;;11.40;10.55;;;;;;;;;;4147498;28;20049;-63
2023/10/07 06:39:30;;;;;;;11.00;10.10;;;;;;;;;;4147918;28;20395;-62
2023/10/07 06:41:31;;;;;;;11.30;10.63;;;;;;;;;;4146969;28;20051;-63
2023/10/07 06:43:33;;;;;;;12.13;11.33;;;;;;;;;;4148128;28;20532;-63
2023/10/07 06:45:39;;;;;;;12.00;11.13;;;;;;;;;;4144338;28;20037;-63
2023/10/07 06:47:40;;;;;;;12.20;11.50;;;;;;;;;;4141471;28;20050;-63
2023/10/07 06:49:42;;;;;;;12.13;11.43;;;;;;;;;;4142638;28;20061;-62
2023/10/07 06:51:44;;;;;;;11.70;10.88;;;;;;;;;;4144660;28;20506;-62
2023/10/07 06:53:46;;;;;;;11.68;10.88;;;;;;;;;;4141115;28;20084;-62
2023/10/07 06:55:48;;;;;;;13.90;12.77;;;;;;;;;;4146960;28;20037;-63
2023/10/07 06:57:56;;;;;;;13.20;12.10;;;;;;;;;;4147258;28;20534;-63
2023/10/07 06:59:57;;;;;;;11.73;11.13;;;;;;;;;;4147946;28;20145;-63
2023/10/07 07:02:11;;;;;;;11.77;11.13;;;;;;;;;;4145698;28;20042;-63
2023/10/07 07:04:18;;;;;;;12.63;10.65;;;;;;;;;;4131616;28;20035;-63
2023/10/07 07:06:33;;;;;;;11.70;10.93;;;;;;;;;;4138843;28;20124;-63
2023/10/07 07:08:35;;;;;;;10.98;10.18;;;;;;;;;;4132537;28;20048;-63
2023/10/07 07:10:37;;;;;;;11.97;11.37;;;;;;;;;;4138923;28;20046;-62
2023/10/07 07:12:38;;;;;;;10.73;10.20;;;;;;;;;;4147739;28;20116;-63
2023/10/07 07:14:46;;;;;;;11.37;10.77;;;;;;;;;;4143057;28;20375;-62
2023/10/07 07:16:49;;;;;;;10.55;9.85;;;;;;;;;;4140614;28;20324;-62
2023/10/07 07:18:52;;;;;;;11.00;10.50;;;;;;;;;;4141760;28;20129;-62
2023/10/07 07:22:58;;;;;;;10.35;9.82;;;;;;;;;;4147655;28;19953;-63
2023/10/07 07:25:07;;;;;;;12.02;11.18;;;;;;;;;;4136677;28;20494;-63
2023/10/07 07:27:09;;;;;;;10.85;10.07;;;;;;;;;;4157085;28;20121;-63
2023/10/07 07:29:17;;;;;;;9.27;8.98;;;;;;;;;;4146687;28;20516;-62
2023/10/07 07:31:33;;;;;;;11.20;10.30;;;;;;;;;;4147462;28;20099;-62
2023/10/07 07:33:35;;;;;;;9.32;8.82;;;;;;;;;;4142297;28;20030;-62
2023/10/07 07:35:51;;;;;;;;;;;;;;;;;;4139251;28;20525;-62
2023/10/07 07:37:53;;;;;;;8.85;8.45;;;;;;;;;;4131090;28;20008;-62
2023/10/07 07:39:54;;;;;;;8.60;8.13;;;;;;;;;;4131047;28;20050;-62
2023/10/07 07:41:57;;;;;;;8.53;8.10;;;;;;;;;;4131044;28;20290;-62
2023/10/07 07:43:59;;;;;;;8.00;7.70;;;;;;;;;;4144739;28;20510;-62
2023/10/07 07:46:26;;;;;;;10.52;8.25;;;;;;;;;;4147110;28;20046;-62
2023/10/07 07:48:28;;;;;;;8.95;8.43;;;;;;;;;;4147363;28;20072;-62
2023/10/07 07:50:35;;;;;;;10.18;9.57;;;;;;;;;;4141349;28;20046;-62
2023/10/07 07:52:37;;;;;;;9.15;8.52;;;;;;;;;;4146945;28;20045;-61
2023/10/07 07:54:39;;;;;;;8.63;8.18;;;;;;;;;;4147255;28;20112;-62
2023/10/07 07:56:42;;;;;;;8.40;8.10;;;;;;;;;;4147414;28;20034;-62
2023/10/07 07:58:47;;;;;;;8.63;8.13;;;;;;;;;;4146979;28;20379;-62
2023/10/07 08:00:58;;;;;;;8.02;7.70;;;;;;;;;;4145182;28;20434;-63
2023/10/07 08:03:03;;;;;;;7.78;7.40;;;;;;;;;;4142480;28;20054;-62
2023/10/07 08:05:05;;;;;;;8.70;8.30;;;;;;;;;;4150076;28;20045;-62
2023/10/07 08:07:18;;;;;;;9.52;9.02;;;;;;;;;;4140600;28;20038;-62
2023/10/07 08:09:21;;;;;;;8.65;8.32;;;;;;;;;;4150203;28;20054;-61
2023/10/07 08:11:22;;;;;;;7.53;7.13;;;;;;;;;;4150233;28;20077;-62
2023/10/07 08:13:24;;;;;;;9.60;7.10;;;;;;;;;;4139482;28;20100;-62
2023/10/07 08:15:38;;;;;;;7.20;6.97;;;;;;;;;;4145929;28;20042;-61
2023/10/07 08:17:44;;;;;;;7.75;7.32;;;;;;;;;;4150158;28;20099;-62
2023/10/07 08:19:50;;;;;;;8.00;7.40;;;;;;;;;;4149714;28;20034;-62
2023/10/07 08:21:52;;;;;;;7.35;6.82;;;;;;;;;;4139971;28;20145;-62
2023/10/07 08:23:54;;;;;;;6.90;6.50;;;;;;;;;;4144171;28;20092;-62
2023/10/07 08:26:08;;;;;;;7.03;6.82;;;;;;;;;;4141251;28;20053;-63
2023/10/07 08:28:22;;;;;;;6.97;6.45;;;;;;;;;;4138407;28;20038;-63
2023/10/07 08:30:39;;;;;;;7.10;6.70;;;;;;;;;;4137891;28;20104;-63
2023/10/07 08:32:41;;;;;;;6.93;6.47;;;;;;;;;;4140186;28;20050;-63
2023/10/07 08:34:47;;;;;;;6.45;6.18;;;;;;;;;;4138597;28;20117;-63
2023/10/07 08:36:49;;;;;;;6.90;6.70;;;;;;;;;;4144671;28;20037;-63
2023/10/07 08:38:51;;;;;;;6.97;6.77;;;;;;;;;;4138740;28;20038;-63
2023/10/07 08:41:16;;;;;;;6.03;5.72;;;;;;;;;;4144172;28;20288;-63
2023/10/07 08:43:25;;;;;;;7.40;6.85;;;;;;;;;;4137544;28;20041;-63
2023/10/07 08:45:28;;;;;;;6.43;6.22;;;;;;;;;;4149691;28;20388;-63
2023/10/07 08:47:39;;;;;;;7.22;6.97;;;;;;;;;;4137290;28;20042;-63
2023/10/07 08:49:43;;;;;;;7.33;7.03;;;;;;;;;;4136404;28;20046;-63
2023/10/07 08:51:45;;;;;;;6.43;5.90;;;;;;;;;;4143064;28;20043;-63
2023/10/07 08:53:47;;;;;;;6.85;6.15;;;;;;;;;;4149556;28;20112;-63
2023/10/07 08:55:51;;;;;;;6.40;6.10;;;;;;;;;;4149806;28;20546;-63
2023/10/07 08:57:53;;;;;;;6.53;6.13;;;;;;;;;;4149427;28;20045;-63
2023/10/07 08:59:59;;;;;;;5.88;5.55;;;;;;;;;;4140592;28;20050;-63
2023/10/07 09:02:03;;;;;;;6.25;5.72;;;;;;;;;;4136223;28;20097;-63
2023/10/07 09:04:08;;;;;;;6.22;6.03;;;;;;;;;;4141004;28;20037;-62
2023/10/07 09:06:11;;;;;;;4.75;4.45;;;;;;;;;;4147968;28;20077;-62
2023/10/07 09:08:13;;;;;;;5.55;5.35;;;;;;;;;;4139826;28;20477;-62
2023/10/07 09:10:16;;;;;;;5.15;4.80;;;;;;;;;;4139837;28;20038;-62
2023/10/07 09:12:28;;;;;;;5.45;5.35;;;;;;;;;;4140795;28;20453;-62
2023/10/07 09:14:30;;;;;;;6.63;5.95;;;;;;;;;;4149328;28;20041;-62
2023/10/07 09:16:33;;;;;;;6.28;5.82;;;;;;;;;;4148701;28;20096;-62
2023/10/07 09:18:41;;;;;;;5.18;4.88;;;;;;;;;;4141251;28;20049;-62
2023/10/07 09:20:50;;;;;;;5.63;5.18;;;;;;;;;;4145227;28;20080;-62
2023/10/07 09:22:53;;;;;;;5.72;5.45;;;;;;;;;;4149067;28;20037;-62
2023/10/07 09:25:08;;;;;;;4.70;4.55;;;;;;;;;;4148996;28;20042;-62
2023/10/07 09:27:13;;;;;;;5.05;4.85;;;;;;;;;;4147988;28;20069;-62
2023/10/07 09:29:15;;;;;;;5.32;5.05;;;;;;;;;;4147410;28;20064;-62
2023/10/07 09:31:19;;;;;;;4.70;4.57;;;;;;;;;;4149250;28;20042;-63
2023/10/07 09:33:21;;;;;;;4.15;3.95;;;;;;;;;;4145714;28;20089;-62
2023/10/07 09:35:25;;;;;;;4.97;4.60;;;;;;;;;;4143511;28;20117;-62
2023/10/07 09:37:32;;;;;;;4.20;3.97;;;;;;;;;;4141798;28;20088;-62
2023/10/07 09:39:34;;;;;;;3.75;3.45;;;;;;;;;;4147490;28;20077;-63
2023/10/07 09:41:37;;;;;;;4.05;3.95;;;;;;;;;;4147580;28;20050;-62
2023/10/07 09:43:42;;;;;;;5.25;5.05;;;;;;;;;;4144351;28;20037;-62
2023/10/07 09:45:46;;;;;;;5.53;5.20;;;;;;;;;;4140831;28;20072;-63
2023/10/07 09:47:48;;;;;;;5.20;4.95;;;;;;;;;;4146491;28;20046;-62
2023/10/07 09:49:57;;;;;;;5.68;5.38;;;;;;;;;;4145843;28;20050;-62
2023/10/07 09:52:15;;;;;;;5.20;4.43;;;;;;;;;;4148932;28;20069;-63
2023/10/07 09:54:22;;;;;;;5.95;5.30;;;;;;;;;;4148844;28;20406;-62
2023/10/07 09:56:38;;;;;;;4.03;3.92;;;;;;;;;;4141186;28;20039;-63
2023/10/07 09:58:41;;;;;;;3.85;3.63;;;;;;;;;;4133751;28;20042;-62
2023/10/07 10:01:04;;;;;;;3.58;3.47;;;;;;;;;;4146423;28;20034;-63
2023/10/07 10:03:12;;;;;;;4.03;3.72;;;;;;;;;;4141534;28;20576;-62
2023/10/07 10:05:25;;;;;;;3.00;2.72;;;;;;;;;;4140716;28;20085;-61
2023/10/07 10:07:39;;;;;;;2.63;2.42;;;;;;;;;;4146226;28;20041;-62
2023/10/07 10:10:05;;;;;;;2.30;2.20;;;;;;;;;;4144133;28;20465;-62
2023/10/07 10:12:23;;;;;;;3.00;2.90;;;;;;;;;;4146072;28;20641;-62
2023/10/07 10:14:55;;;;;;;3.00;2.80;;;;;;;;;;4139004;28;20038;-61
2023/10/07 10:16:59;;;;;;;3.15;2.55;;;;;;;;;;4141383;28;20050;-62
2023/10/07 10:19:22;;;;;;;2.40;2.28;;;;;;;;;;4146385;28;20042;-62
2023/10/07 10:21:24;;;;;;;2.60;2.50;;;;;;;;;;4138861;28;20042;-62
2023/10/07 10:23:32;;;;;;;2.60;2.40;;;;;;;;;;4138911;28;20066;-62
2023/10/07 10:25:37;;;;;;;2.50;2.22;;;;;;;;;;4140462;28;20042;-62
2023/10/07 10:27:44;;;;;;;2.20;2.10;;;;;;;;;;4144666;28;20048;-62
2023/10/07 10:29:55;;;;;;;2.83;2.08;;;;;;;;;;4138849;28;20518;-63
2023/10/07 10:32:00;;;;;;;1.85;1.75;;;;;;;;;;4145856;28;20038;-63
2023/10/07 10:34:05;;;;;;;2.25;2.15;;;;;;;;;;4145168;28;20042;-63
2023/10/07 10:36:08;;;;;;;2.88;2.45;;;;;;;;;;4136977;28;20046;-63
2023/10/07 10:38:10;;;;;;;2.35;2.25;;;;;;;;;;4138792;28;20033;-63
2023/10/07 10:40:15;;;;;;;2.40;2.30;;;;;;;;;;4141943;28;20038;-63
2023/10/07 10:42:17;;;;;;;2.40;1.85;;;;;;;;;;4145097;28;20045;-63
2023/10/07 10:44:20;;;;;;;1.92;1.83;;;;;;;;;;4148339;28;20038;-63
2023/10/07 10:46:26;;;;;;;2.75;1.90;;;;;;;;;;4138617;28;20133;-62
2023/10/07 10:48:31;;;;;;;1.88;1.77;;;;;;;;;;4145049;28;20129;-63
2023/10/07 10:50:33;;;;;;;3.00;2.03;;;;;;;;;;4147151;28;20084;-63
2023/10/07 10:52:34;;;;;;;2.15;2.05;;;;;;;;;;4147365;28;20104;-63
2023/10/07 10:54:36;;;;;;;1.75;1.65;;;;;;;;;;4135854;28;20046;-63
2023/10/07 10:56:38;;;;;;;;;;;;;;;;;;4132022;28;20042;-63
2023/10/07 10:58:40;;;;;;;4.80;2.03;;;;;;;;;;4131896;28;19933;-63
2023/10/07 11:00:51;;;;;;;2.00;1.80;;;;;;;;;;4131613;28;20042;-63
2023/10/07 11:02:53;;;;;;;2.30;2.15;;;;;;;;;;4134938;28;20125;-63
2023/10/07 11:04:55;;;;;;;2.50;1.63;;;;;;;;;;4147836;28;20137;-63
2023/10/07 11:07:00;;;;;;;1.60;1.50;;;;;;;;;;4147610;28;20490;-63
2023/10/07 11:09:03;;;;;;;1.63;1.52;;;;;;;;;;4146685;28;20042;-63
2023/10/07 11:11:10;;;;;;;2.65;1.40;;;;;;;;;;4147507;28;20046;-63
2023/10/07 11:13:13;;;;;;;1.80;1.70;;;;;;;;;;4145455;28;20046;-63
2023/10/07 11:15:15;;;;;;;1.60;1.50;;;;;;;;;;4146685;28;20409;-63
2023/10/07 11:17:17;;;;;;;1.80;1.70;;;;;;;;;;4142110;28;20040;-63
2023/10/07 11:19:19;;;;;;;1.92;1.83;;;;;;;;;;4142571;28;20068;-63
2023/10/07 11:21:23;;;;;;;1.85;1.75;;;;;;;;;;4147464;28;20045;-63
2023/10/07 11:23:27;;;;;;;2.08;1.98;;;;;;;;;;4147578;28;20112;-63
2023/10/07 11:25:30;;;;;;;1.85;1.75;;;;;;;;;;4147753;28;20137;-63
2023/10/07 11:27:32;;;;;;;2.20;2.10;;;;;;;;;;4162997;28;20041;-63
2023/10/07 11:29:35;;;;;;;2.25;1.98;;;;;;;;;;4163801;28;20516;-63
2023/10/07 11:31:37;;;;;;;1.88;1.55;;;;;;;;;;4163747;28;20049;-64
2023/10/07 11:33:49;;;;;;;2.45;1.88;;;;;;;;;;4163879;28;20128;-64
2023/10/07 11:35:58;;;;;;;1.33;1.23;;;;;;;;;;4154613;28;20034;-63
2023/10/07 11:38:02;;;;;;;3.28;2.28;;;;;;;;;;4141345;28;20578;-63
2023/10/07 11:40:04;;;;;;;2.85;1.60;;;;;;;;;;4152405;28;20037;-63
2023/10/07 11:42:06;;;;;;;1.30;1.30;;;;;;;;;;4152858;28;20049;-64
2023/10/07 11:44:09;;;;;;;2.47;2.15;;;;;;;;;;4152755;28;20040;-63
2023/10/07 11:46:13;;;;;;;2.30;2.10;;;;;;;;;;4152935;28;20069;-63
2023/10/07 11:48:15;;;;;;;1.50;1.42;;;;;;;;;;4152846;28;20394;-63
2023/10/07 11:50:17;;;;;;;2.33;2.22;;;;;;;;;;4152865;28;20041;-64
2023/10/07 11:52:19;;;;;;;3.35;2.33;;;;;;;;;;4149045;28;20044;-63
2023/10/07 11:54:24;;;;;;;;;;;;;;;;;;4151019;28;20042;-63
2023/10/07 11:56:27;;;;;;;2.35;1.48;;;;;;;;;;4152913;28;20004;-63
2023/10/07 11:58:28;;;;;;;1.90;1.80;;;;;;;;;;4150841;28;20093;-63
2023/10/07 12:00:34;;;;;;;2.53;2.28;;;;;;;;;;4143154;28;20130;-63
2023/10/07 12:02:38;;;;;;;1.67;1.42;;;;;;;;;;4149651;28;20080;-63
2023/10/07 12:04:44;;;;;;;1.83;1.73;;;;;;;;;;4152814;28;20050;-63
2023/10/07 12:06:47;;;;;;;1.20;1.10;;;;;;;;;;4152676;28;20501;-63
2023/10/07 12:08:48;;;;;;;1.38;1.27;;;;;;;;;;4152674;28;20045;-64
2023/10/07 12:10:51;;;;;;;3.05;1.15;;;;;;;;;;4152754;28;20058;-63
2023/10/07 12:12:53;;;;;;;1.95;1.63;;;;;;;;;;4151931;28;20049;-63
2023/10/07 12:14:54;;;;;;;1.80;1.70;;;;;;;;;;4146497;28;20054;-63
2023/10/07 12:16:58;;;;;;;3.22;1.20;;;;;;;;;;4151390;28;20050;-64
2023/10/07 12:19:00;;;;;;;2.00;1.90;;;;;;;;;;4146301;28;20529;-63
2023/10/07 12:21:02;;;;;;;;;;;;;;;;;;4153114;28;20034;-64
2023/10/07 12:23:05;;;;;;;1.25;1.20;;;;;;;;;;4152742;28;20323;-63
2023/10/07 12:25:09;;;;;;;2.20;1.20;;;;;;;;;;4152672;28;20045;-64
2023/10/07 12:27:10;;;;;;;1.75;1.30;;;;;;;;;;4165207;28;20111;-63
2023/10/07 12:29:12;;;;;;;;;;;;;;;;;;4169516;28;20049;-63
2023/10/07 12:31:14;;;;;;;3.40;1.37;;;;;;;;;;4157816;28;19921;-63
2023/10/07 12:33:16;;;;;;;2.10;1.40;;;;;;;;;;4150742;28;20289;-63
2023/10/07 12:35:34;;;;;;;2.45;1.10;;;;;;;;;;4145712;28;20054;-63
2023/10/07 12:37:38;;;;;;;1.25;1.25;;;;;;;;;;4136277;28;20428;-64
2023/10/07 12:39:39;;;;;;;1.30;1.30;;;;;;;;;;4141421;28;20042;-63
2023/10/07 12:41:41;;;;;;;1.63;1.52;;;;;;;;;;4149686;28;20038;-63
2023/10/07 12:43:43;;;;;;;1.50;1.25;;;;;;;;;;4149618;28;20041;-64
2023/10/07 12:45:45;;;;;;;1.77;1.20;;;;;;;;;;4144119;28;20502;-64
2023/10/07 12:47:51;;;;;;;1.77;1.67;;;;;;;;;;4147076;28;20042;-63
2023/10/07 12:49:53;;;;;;;1.52;1.13;;;;;;;;;;4140782;28;20042;-64
2023/10/07 12:51:57;;;;;;;;;;;;;;;;;;4139531;28;20081;-63
2023/10/07 12:54:00;;;;;;;1.50;1.40;;;;;;;;;;4149479;28;19960;-63
2023/10/07 12:56:12;;;;;;;3.13;1.13;;;;;;;;;;4150073;28;20064;-63
2023/10/07 12:58:16;;;;;;;1.10;1.10;;;;;;;;;;4149627;28;20065;-63
2023/10/07 13:00:32;;;;;;;1.30;1.20;;;;;;;;;;4149801;28;20037;-63
2023/10/07 13:02:33;;;;;;;1.25;1.15;;;;;;;;;;4150590;28;20077;-64